createdAt,value
2019-02-14T00:00:38.921Z,10.14
2019-02-14T00:03:08.507Z,10.13
2019-02-14T00:05:38.028Z,10.23
2019-02-14T00:08:07.556Z,10.24
2019-02-14T00:10:37.619Z,10.10
2019-02-14T00:13:07.150Z,10.16
2019-02-14T00:15:36.841Z,9.98
2019-02-14T00:18:06.407Z,9.90
2019-02-14T00:20:35.922Z,10.13
2019-02-14T00:23:06.159Z,10.23
2019-02-14T00:25:35.850Z,10.39
2019-02-14T00:28:05.398Z,10.31
2019-02-14T00:30:34.945Z,10.20
2019-02-14T00:33:04.476Z,10.30
2019-02-14T00:35:34.465Z,10.31
2019-02-14T00:38:04.550Z,10.29
2019-02-14T00:40:34.143Z,10.31
2019-02-14T00:43:03.662Z,10.28
2019-02-14T00:45:34.685Z,10.06
2019-02-14T00:48:04.718Z,10.14
2019-02-14T00:50:34.240Z,10.22
2019-02-14T00:53:03.848Z,10.38
2019-02-14T00:55:33.365Z,10.50
2019-02-14T00:58:02.871Z,10.28
2019-02-14T01:00:32.920Z,10.06
2019-02-14T01:03:02.454Z,10.13
2019-02-14T01:05:33.857Z,10.01
2019-02-14T01:08:03.366Z,10.12
2019-02-14T01:10:32.954Z,9.88
2019-02-14T01:13:02.801Z,10.02
2019-02-14T01:15:32.630Z,10.13
2019-02-14T01:18:02.156Z,10.11
2019-02-14T01:20:31.668Z,10.29
2019-02-14T01:23:01.213Z,10.27
2019-02-14T01:25:30.739Z,10.34
2019-02-14T01:28:00.235Z,10.54
2019-02-14T01:30:30.150Z,10.61
2019-02-14T01:32:59.659Z,10.25
2019-02-14T01:35:29.178Z,10.07
2019-02-14T01:37:58.745Z,10.31
2019-02-14T01:40:28.250Z,10.32
2019-02-14T01:42:57.745Z,10.16
2019-02-14T01:45:27.453Z,9.97
2019-02-14T01:47:56.958Z,10.08
2019-02-14T01:50:26.466Z,9.96
2019-02-14T01:52:59.095Z,10.02
2019-02-14T01:55:28.601Z,9.96
2019-02-14T01:57:58.110Z,10.07
2019-02-14T02:00:27.820Z,10.20
2019-02-14T02:02:57.670Z,9.88
2019-02-14T02:05:27.331Z,10.24
2019-02-14T02:07:56.853Z,9.96
2019-02-14T02:10:26.513Z,9.98
2019-02-14T02:12:56.171Z,10.04
2019-02-14T02:15:26.843Z,10.19
2019-02-14T02:17:56.781Z,10.01
2019-02-14T02:20:33.241Z,9.81
2019-02-14T02:22:57.677Z,9.95
2019-02-14T02:25:27.187Z,9.97
2019-02-14T02:27:56.750Z,9.90
2019-02-14T02:30:26.294Z,9.68
2019-02-14T02:32:55.792Z,9.45
2019-02-14T02:35:25.328Z,9.43
2019-02-14T02:37:54.925Z,9.70
2019-02-14T02:40:24.427Z,9.78
2019-02-14T02:42:54.014Z,9.85
2019-02-14T02:45:23.547Z,9.63
2019-02-14T02:47:53.060Z,9.28
2019-02-14T02:50:22.579Z,9.33
2019-02-14T02:52:52.120Z,9.32
2019-02-14T02:55:21.627Z,9.43
2019-02-14T02:57:51.141Z,9.20
2019-02-14T03:00:20.782Z,8.84
2019-02-14T03:02:50.317Z,9.03
2019-02-14T03:05:19.838Z,9.02
2019-02-14T03:07:49.380Z,9.07
2019-02-14T03:10:19.478Z,9.18
2019-02-14T03:12:49.393Z,9.21
2019-02-14T03:15:18.938Z,8.88
2019-02-14T03:17:48.442Z,9.15
2019-02-14T03:20:18.055Z,9.28
2019-02-14T03:22:49.889Z,9.22
2019-02-14T03:25:20.624Z,9.29
2019-02-14T03:27:50.145Z,9.36
2019-02-14T03:30:19.680Z,9.29
2019-02-14T03:32:49.200Z,9.45
2019-02-14T03:35:18.767Z,9.43
2019-02-14T03:37:48.340Z,9.39
2019-02-14T03:40:17.856Z,9.43
2019-02-14T03:42:47.433Z,9.31
2019-02-14T03:45:20.337Z,9.41
2019-02-14T03:47:49.845Z,9.43
2019-02-14T03:50:19.373Z,9.47
2019-02-14T03:52:48.925Z,9.22
2019-02-14T03:55:18.499Z,9.13
2019-02-14T03:57:48.133Z,9.01
2019-02-14T04:00:18.924Z,8.85
2019-02-14T04:02:48.418Z,9.02
2019-02-14T04:05:17.945Z,8.89
2019-02-14T04:07:47.700Z,8.62
2019-02-14T04:10:17.331Z,8.62
2019-02-14T04:12:46.919Z,8.78
2019-02-14T04:15:18.562Z,8.75
2019-02-14T04:17:48.150Z,8.85
2019-02-14T04:20:18.154Z,8.79
2019-02-14T04:22:47.801Z,8.47
2019-02-14T04:25:17.379Z,8.66
2019-02-14T04:27:46.966Z,8.58
2019-02-14T04:30:17.087Z,8.49
2019-02-14T04:32:46.595Z,8.38
2019-02-14T04:35:16.097Z,8.35
2019-02-14T04:37:45.737Z,8.05
2019-02-14T04:40:15.308Z,8.23
2019-02-14T04:42:44.826Z,8.19
2019-02-14T04:45:15.105Z,8.19
2019-02-14T04:47:44.680Z,8.42
2019-02-14T04:50:14.335Z,8.33
2019-02-14T04:52:44.552Z,8.46
2019-02-14T04:55:14.125Z,8.59
2019-02-14T04:57:43.785Z,8.73
2019-02-14T05:00:15.836Z,8.63
2019-02-14T05:02:45.337Z,8.82
2019-02-14T05:05:14.928Z,8.78
2019-02-14T05:07:44.619Z,8.87
2019-02-14T05:10:14.311Z,8.97
2019-02-14T05:12:43.830Z,8.81
2019-02-14T05:15:13.984Z,8.80
2019-02-14T05:17:43.489Z,8.46
2019-02-14T05:20:13.787Z,8.77
2019-02-14T05:22:43.348Z,8.59
2019-02-14T05:25:12.937Z,8.65
2019-02-14T05:27:42.440Z,8.64
2019-02-14T05:30:21.254Z,8.47
2019-02-14T05:32:50.768Z,8.53
2019-02-14T05:35:20.280Z,8.36
2019-02-14T05:37:49.804Z,8.38
2019-02-14T05:40:19.370Z,8.51
2019-02-14T05:42:48.898Z,8.44
2019-02-14T05:45:18.434Z,8.51
2019-02-14T05:47:48.186Z,8.45
2019-02-14T05:50:17.754Z,8.12
2019-02-14T05:52:47.618Z,8.35
2019-02-14T05:55:17.125Z,8.36
2019-02-14T05:57:46.707Z,8.43
2019-02-14T06:00:18.831Z,8.18
2019-02-14T06:02:48.345Z,8.16
2019-02-14T06:05:17.864Z,8.33
2019-02-14T06:07:47.460Z,8.06
2019-02-14T06:10:16.960Z,8.18
2019-02-14T06:12:46.480Z,8.04
2019-02-14T06:15:16.491Z,8.26
2019-02-14T06:17:46.000Z,8.09
2019-02-14T06:20:15.647Z,7.95
2019-02-14T06:22:45.180Z,7.40
2019-02-14T06:25:15.441Z,7.51
2019-02-14T06:27:44.942Z,7.72
2019-02-14T06:30:16.396Z,7.67
2019-02-14T06:32:46.051Z,7.44
2019-02-14T06:35:15.649Z,7.54
2019-02-14T06:37:45.484Z,7.48
2019-02-14T06:40:15.498Z,7.45
2019-02-14T06:42:45.081Z,7.32
2019-02-14T06:45:19.293Z,7.49
2019-02-14T06:47:48.796Z,7.43
2019-02-14T06:50:18.382Z,7.38
2019-02-14T06:52:49.937Z,7.17
2019-02-14T06:55:19.880Z,7.24
2019-02-14T06:57:49.474Z,6.91
2019-02-14T07:00:19.492Z,6.86
2019-02-14T07:02:48.995Z,7.08
2019-02-14T07:05:18.504Z,7.38
2019-02-14T07:07:48.045Z,7.49
2019-02-14T07:10:17.631Z,7.59
2019-02-14T07:12:47.125Z,7.87
2019-02-14T07:15:18.345Z,7.80
2019-02-14T07:17:47.858Z,7.49
2019-02-14T07:20:18.303Z,7.43
2019-02-14T07:22:47.850Z,7.74
2019-02-14T07:25:17.339Z,8.26
2019-02-14T07:27:46.872Z,8.34
2019-02-14T07:30:23.145Z,8.07
2019-02-14T07:32:52.660Z,8.68
2019-02-14T07:35:22.319Z,9.25
2019-02-14T07:37:51.861Z,9.31
2019-02-14T07:40:21.363Z,9.90
2019-02-14T07:42:50.884Z,10.72
2019-02-14T07:45:20.482Z,11.24
2019-02-14T07:47:50.065Z,11.47
2019-02-14T07:50:19.733Z,11.72
2019-02-14T07:52:49.720Z,12.24
2019-02-14T07:55:19.351Z,12.30
2019-02-14T07:57:49.538Z,13.04
2019-02-14T08:00:20.616Z,13.72
2019-02-14T08:02:50.217Z,14.08
2019-02-14T08:05:19.798Z,14.03
2019-02-14T08:07:49.427Z,14.74
2019-02-14T08:10:20.430Z,14.73
2019-02-14T08:12:50.020Z,15.56
2019-02-14T08:15:19.995Z,15.49
2019-02-14T08:17:49.631Z,14.43
2019-02-14T08:20:22.937Z,14.70
2019-02-14T08:22:52.473Z,15.00
2019-02-14T08:25:22.073Z,15.31
2019-02-14T08:27:51.599Z,13.07
2019-02-14T08:30:24.832Z,13.35
2019-02-14T08:32:54.353Z,13.63
2019-02-14T08:35:23.954Z,14.73
2019-02-14T08:37:54.040Z,15.43
2019-02-14T08:40:28.423Z,14.89
2019-02-14T08:42:58.709Z,15.25
2019-02-14T08:45:28.594Z,15.69
2019-02-14T08:47:58.250Z,16.03
2019-02-14T08:50:28.217Z,16.63
2019-02-14T08:52:58.057Z,16.60
2019-02-14T08:55:27.657Z,17.04
2019-02-14T08:57:57.197Z,16.46
2019-02-14T09:00:26.982Z,16.79
2019-02-14T09:02:56.541Z,18.34
2019-02-14T09:05:26.184Z,19.97
2019-02-14T09:07:55.705Z,19.45
2019-02-14T09:10:25.285Z,20.74
2019-02-14T09:12:55.107Z,20.96
2019-02-14T09:15:25.101Z,21.26
2019-02-14T09:17:54.678Z,21.88
2019-02-14T09:20:24.747Z,21.78
2019-02-14T09:22:54.357Z,22.62
2019-02-14T09:25:23.966Z,22.87
2019-02-14T09:27:53.593Z,23.18
2019-02-14T09:30:23.229Z,23.68
2019-02-14T09:32:52.987Z,23.93
2019-02-14T09:35:22.576Z,23.02
2019-02-14T09:37:52.692Z,24.32
2019-02-14T09:40:22.203Z,24.56
2019-02-14T09:42:51.762Z,22.55
2019-02-14T09:45:21.266Z,22.28
2019-02-14T09:47:50.901Z,22.49
2019-02-14T09:50:20.444Z,20.88
2019-02-14T09:52:50.041Z,21.56
2019-02-14T09:55:19.676Z,22.82
2019-02-14T09:57:49.395Z,22.67
2019-02-14T10:00:20.119Z,23.49
2019-02-14T10:02:49.678Z,21.80
2019-02-14T10:05:19.413Z,22.46
2019-02-14T10:07:48.920Z,22.72
2019-02-14T10:10:24.378Z,21.90
2019-02-14T10:12:54.129Z,21.08
2019-02-14T10:15:23.783Z,21.57
2019-02-14T10:17:53.648Z,22.04
2019-02-14T10:20:23.147Z,22.31
2019-02-14T10:22:52.727Z,24.07
2019-02-14T10:25:22.398Z,23.65
2019-02-14T10:27:52.004Z,25.27
2019-02-14T10:30:25.246Z,26.25
2019-02-14T10:32:55.059Z,27.08
2019-02-14T10:35:24.712Z,24.40
2019-02-14T10:37:54.232Z,23.02
2019-02-14T10:40:23.759Z,22.06
2019-02-14T10:42:53.292Z,23.38
2019-02-14T10:45:24.717Z,24.47
2019-02-14T10:47:54.260Z,23.05
2019-02-14T10:50:23.783Z,22.50
2019-02-14T10:52:53.341Z,23.63
2019-02-14T10:55:23.032Z,25.07
2019-02-14T10:57:52.567Z,24.38
2019-02-14T11:00:28.408Z,24.72
2019-02-14T11:02:57.966Z,23.11
2019-02-14T11:05:27.756Z,22.69
2019-02-14T11:07:57.392Z,23.19
2019-02-14T11:10:27.054Z,22.76
2019-02-14T11:12:58.116Z,22.62
2019-02-14T11:15:28.143Z,24.54
2019-02-14T11:17:57.709Z,24.68
2019-02-14T11:20:27.311Z,25.82
2019-02-14T11:22:56.856Z,24.54
2019-02-14T11:25:33.975Z,22.91
2019-02-14T11:28:03.525Z,23.73
2019-02-14T11:30:33.212Z,25.57
2019-02-14T11:33:02.896Z,27.85
2019-02-14T11:35:32.639Z,28.18
2019-02-14T11:38:02.216Z,29.48
2019-02-14T11:40:31.856Z,27.78
2019-02-14T11:43:01.610Z,26.30
2019-02-14T11:45:31.246Z,28.05
2019-02-14T11:48:00.836Z,29.56
2019-02-14T11:50:30.381Z,27.53
2019-02-14T11:52:59.904Z,26.17
2019-02-14T11:55:29.405Z,26.30
2019-02-14T11:57:59.030Z,27.81
2019-02-14T12:00:28.690Z,29.67
2019-02-14T12:02:58.227Z,30.70
2019-02-14T12:05:27.791Z,29.98
2019-02-14T12:07:57.629Z,29.86
2019-02-14T12:10:27.163Z,31.28
2019-02-14T12:12:56.716Z,30.30
2019-02-14T12:15:26.773Z,30.47
2019-02-14T12:17:56.394Z,29.63
2019-02-14T12:20:26.466Z,30.13
2019-02-14T12:22:55.976Z,30.67
2019-02-14T12:25:29.276Z,32.15
2019-02-14T12:27:58.877Z,31.65
2019-02-14T12:30:28.525Z,31.34
2019-02-14T12:32:58.033Z,32.39
2019-02-14T12:35:29.672Z,33.00
2019-02-14T12:37:59.195Z,33.27
2019-02-14T12:40:28.753Z,34.20
2019-02-14T12:42:58.361Z,34.57
2019-02-14T12:45:28.213Z,32.71
2019-02-14T12:47:57.814Z,31.87
2019-02-14T12:50:27.439Z,31.65
2019-02-14T12:52:57.024Z,31.66
2019-02-14T12:55:26.693Z,30.88
2019-02-14T12:57:56.388Z,31.11
2019-02-14T13:00:26.205Z,31.33
2019-02-14T13:02:55.727Z,32.89
2019-02-14T13:05:25.442Z,33.11
2019-02-14T13:07:55.035Z,32.29
2019-02-14T13:10:24.744Z,32.21
2019-02-14T13:12:54.352Z,31.84
2019-02-14T13:15:27.406Z,32.00
2019-02-14T13:17:56.934Z,31.36
2019-02-14T13:20:26.930Z,32.47
2019-02-14T13:22:56.524Z,31.49
2019-02-14T13:25:26.044Z,31.78
2019-02-14T13:27:55.655Z,32.83
2019-02-14T13:30:27.428Z,31.62
2019-02-14T13:32:57.030Z,31.85
2019-02-14T13:35:26.596Z,32.81
2019-02-14T13:37:56.115Z,33.08
2019-02-14T13:40:25.660Z,33.67
2019-02-14T13:42:55.741Z,33.25
2019-02-14T13:45:25.930Z,32.67
2019-02-14T13:47:55.429Z,32.42
2019-02-14T13:50:25.051Z,31.49
2019-02-14T13:52:54.580Z,31.92
2019-02-14T13:55:24.078Z,31.96
2019-02-14T13:57:53.618Z,31.32
2019-02-14T14:00:30.572Z,31.38
2019-02-14T14:03:00.224Z,29.37
2019-02-14T14:05:29.719Z,29.31
2019-02-14T14:07:59.301Z,29.45
2019-02-14T14:10:28.933Z,28.49
2019-02-14T14:12:58.508Z,29.08
2019-02-14T14:15:28.083Z,30.25
2019-02-14T14:17:57.633Z,30.45
2019-02-14T14:20:27.147Z,29.99
2019-02-14T14:22:56.865Z,30.01
2019-02-14T14:25:26.627Z,30.39
2019-02-14T14:27:56.204Z,30.70
2019-02-14T14:30:25.789Z,30.25
2019-02-14T14:32:55.410Z,31.02
2019-02-14T14:35:24.939Z,30.80
2019-02-14T14:37:54.445Z,30.42
2019-02-14T14:40:23.978Z,28.44
2019-02-14T14:42:55.621Z,27.78
2019-02-14T14:45:37.229Z,27.80
2019-02-14T14:48:07.379Z,28.15
2019-02-14T14:50:36.868Z,28.45
2019-02-14T14:53:07.651Z,28.08
2019-02-14T14:55:37.409Z,27.65
2019-02-14T14:58:06.996Z,28.89
2019-02-14T15:00:36.545Z,28.38
2019-02-14T15:03:06.085Z,26.59
2019-02-14T15:05:35.578Z,27.11
2019-02-14T15:08:05.572Z,27.75
2019-02-14T15:10:35.074Z,27.81
2019-02-14T15:13:04.573Z,27.34
2019-02-14T15:15:34.126Z,26.48
2019-02-14T15:18:03.651Z,26.01
2019-02-14T15:20:33.167Z,25.60
2019-02-14T15:23:02.692Z,25.81
2019-02-14T15:25:32.223Z,25.05
2019-02-14T15:28:01.763Z,25.66
2019-02-14T15:30:33.026Z,25.36
2019-02-14T15:33:02.593Z,25.19
2019-02-14T15:35:32.122Z,25.10
2019-02-14T15:38:01.768Z,25.19
2019-02-14T15:40:31.275Z,25.47
2019-02-14T15:43:00.784Z,25.69
2019-02-14T15:45:30.387Z,25.05
2019-02-14T15:47:59.895Z,24.64
2019-02-14T15:50:32.063Z,24.16
2019-02-14T15:53:01.357Z,23.11
2019-02-14T15:55:30.866Z,22.02
2019-02-14T15:58:00.393Z,20.77
2019-02-14T16:00:30.756Z,19.71
2019-02-14T16:03:01.255Z,19.41
2019-02-14T16:05:30.791Z,18.88
2019-02-14T16:08:02.366Z,18.35
2019-02-14T16:10:31.752Z,17.89
2019-02-14T16:13:01.256Z,17.48
2019-02-14T16:15:33.597Z,16.88
2019-02-14T16:18:02.506Z,16.90
2019-02-14T16:20:32.094Z,16.79
2019-02-14T16:23:03.598Z,16.46
2019-02-14T16:25:32.955Z,16.49
2019-02-14T16:28:02.573Z,16.45
2019-02-14T16:30:33.383Z,16.12
2019-02-14T16:33:02.960Z,15.86
2019-02-14T16:35:32.642Z,15.80
2019-02-14T16:38:02.152Z,15.56
2019-02-14T16:40:38.304Z,15.32
2019-02-14T16:43:03.052Z,15.31
2019-02-14T16:45:33.056Z,15.12
2019-02-14T16:48:02.562Z,15.21
2019-02-14T16:50:32.117Z,15.23
2019-02-14T16:53:01.828Z,15.10
2019-02-14T16:55:31.404Z,15.04
2019-02-14T16:58:01.069Z,15.04
2019-02-14T17:00:30.686Z,15.00
2019-02-14T17:03:00.304Z,14.80
2019-02-14T17:05:29.939Z,14.77
2019-02-14T17:07:59.561Z,14.69
2019-02-14T17:10:36.670Z,14.60
2019-02-14T17:13:00.799Z,14.48
2019-02-14T17:15:30.853Z,14.42
2019-02-14T17:18:00.393Z,13.90
2019-02-14T17:20:29.907Z,14.12
2019-02-14T17:22:59.461Z,14.21
2019-02-14T17:25:29.051Z,14.01
2019-02-14T17:27:58.627Z,13.95
2019-02-14T17:30:28.202Z,14.00
2019-02-14T17:32:57.753Z,13.88
2019-02-14T17:35:27.277Z,13.86
2019-02-14T17:37:57.044Z,13.77
2019-02-14T17:40:26.565Z,13.62
2019-02-14T17:42:56.171Z,13.44
2019-02-14T17:45:25.785Z,13.48
2019-02-14T17:47:55.423Z,13.40
2019-02-14T17:50:25.058Z,13.33
2019-02-14T17:52:54.630Z,13.30
2019-02-14T17:55:24.295Z,13.26
2019-02-14T17:57:53.815Z,13.14
2019-02-14T18:00:24.154Z,12.89
2019-02-14T18:02:53.710Z,13.02
2019-02-14T18:05:27.016Z,13.01
2019-02-14T18:07:58.190Z,12.95
2019-02-14T18:10:27.806Z,12.98
2019-02-14T18:12:57.424Z,12.89
2019-02-14T18:15:27.186Z,12.82
2019-02-14T18:17:56.695Z,12.50
2019-02-14T18:20:26.213Z,12.35
2019-02-14T18:22:55.813Z,12.35
2019-02-14T18:25:25.380Z,12.21
2019-02-14T18:27:55.128Z,12.15
2019-02-14T18:30:24.688Z,12.13
2019-02-14T18:32:54.180Z,11.85
2019-02-14T18:35:23.674Z,11.79
2019-02-14T18:37:53.564Z,11.69
2019-02-14T18:40:23.103Z,11.51
2019-02-14T18:42:52.702Z,11.51
2019-02-14T18:45:22.309Z,11.39
2019-02-14T18:47:51.914Z,11.33
2019-02-14T18:50:24.149Z,11.19
2019-02-14T18:52:53.746Z,11.09
2019-02-14T18:55:23.256Z,11.08
2019-02-14T18:57:52.757Z,10.98
2019-02-14T19:00:22.492Z,10.87
2019-02-14T19:02:52.571Z,10.95
2019-02-14T19:05:22.461Z,10.68
2019-02-14T19:07:53.565Z,10.49
2019-02-14T19:10:23.457Z,10.31
2019-02-14T19:12:53.066Z,10.19
2019-02-14T19:15:22.687Z,10.13
2019-02-14T19:17:52.252Z,10.09
2019-02-14T19:20:21.857Z,9.94
2019-02-14T19:22:51.847Z,9.97
2019-02-14T19:25:23.005Z,9.82
2019-02-14T19:27:52.529Z,9.67
2019-02-14T19:30:22.598Z,9.52
2019-02-14T19:32:52.616Z,9.66
2019-02-14T19:35:23.320Z,9.54
2019-02-14T19:37:53.247Z,9.41
2019-02-14T19:40:22.774Z,9.32
2019-02-14T19:42:52.380Z,9.15
2019-02-14T19:45:21.928Z,8.98
2019-02-14T19:47:54.547Z,8.91
2019-02-14T19:50:24.092Z,8.99
2019-02-14T19:52:53.661Z,8.92
2019-02-14T19:55:23.179Z,8.92
2019-02-14T19:57:52.784Z,8.93
2019-02-14T20:00:23.686Z,8.82
2019-02-14T20:02:53.194Z,8.66
2019-02-14T20:05:22.710Z,8.83
2019-02-14T20:07:52.413Z,8.95
2019-02-14T20:10:22.035Z,8.94
2019-02-14T20:12:51.615Z,9.03
2019-02-14T20:15:21.913Z,9.15
2019-02-14T20:17:51.426Z,9.06
2019-02-14T20:20:21.021Z,8.90
2019-02-14T20:22:51.270Z,8.97
2019-02-14T20:25:29.473Z,8.90
2019-02-14T20:27:59.032Z,8.95
2019-02-14T20:30:30.349Z,8.72
2019-02-14T20:33:04.821Z,8.86
2019-02-14T20:35:31.238Z,8.79
2019-02-14T20:38:00.830Z,8.72
2019-02-14T20:40:32.030Z,8.89
2019-02-14T20:43:02.663Z,8.88
2019-02-14T20:45:32.235Z,8.74
2019-02-14T20:48:01.827Z,8.55
2019-02-14T20:50:31.446Z,8.24
2019-02-14T20:53:01.038Z,8.06
2019-02-14T20:55:30.623Z,8.05
2019-02-14T20:58:00.153Z,8.02
2019-02-14T21:00:38.842Z,7.96
2019-02-14T21:03:08.892Z,7.88
2019-02-14T21:05:38.500Z,7.77
2019-02-14T21:08:08.068Z,7.97
2019-02-14T21:10:37.679Z,8.08
2019-02-14T21:13:08.034Z,8.10
2019-02-14T21:15:37.653Z,8.24
2019-02-14T21:18:07.336Z,8.02
2019-02-14T21:20:36.998Z,7.89
2019-02-14T21:23:06.804Z,7.79
2019-02-14T21:25:38.502Z,7.82
2019-02-14T21:28:08.259Z,7.54
2019-02-14T21:30:37.873Z,7.40
2019-02-14T21:33:07.568Z,7.48
2019-02-14T21:35:37.232Z,7.55
2019-02-14T21:38:06.837Z,7.23
2019-02-14T21:40:36.481Z,7.36
2019-02-14T21:43:06.238Z,7.33
2019-02-14T21:45:35.949Z,7.34
2019-02-14T21:48:05.633Z,7.39
2019-02-14T21:50:35.232Z,7.29
2019-02-14T21:53:04.804Z,7.22
2019-02-14T21:55:34.369Z,7.21
2019-02-14T21:58:05.024Z,7.01
2019-02-14T22:00:35.188Z,7.23
2019-02-14T22:03:05.144Z,7.19
2019-02-14T22:05:34.766Z,7.19
2019-02-14T22:08:24.863Z,7.20
2019-02-14T22:10:54.454Z,7.20
2019-02-14T22:13:24.821Z,7.08
2019-02-14T22:15:54.811Z,7.15
2019-02-14T22:18:24.422Z,7.17
2019-02-14T22:20:53.942Z,7.08
2019-02-14T22:23:23.492Z,7.20
2019-02-14T22:25:53.453Z,7.23
2019-02-14T22:28:24.309Z,7.12
2019-02-14T22:30:54.018Z,7.01
2019-02-14T22:33:23.605Z,7.00
2019-02-14T22:35:53.269Z,6.95
2019-02-14T22:38:22.821Z,7.07
2019-02-14T22:40:52.413Z,6.98
2019-02-14T22:43:22.468Z,6.87
2019-02-14T22:45:52.340Z,6.87
2019-02-14T22:48:21.918Z,6.88
2019-02-14T22:50:52.503Z,6.85
2019-02-14T22:53:23.992Z,6.45
2019-02-14T22:55:54.842Z,6.45
2019-02-14T22:58:24.427Z,6.32
2019-02-14T23:00:59.259Z,6.27
2019-02-14T23:03:28.826Z,6.32
2019-02-14T23:05:58.644Z,6.35
2019-02-14T23:08:28.878Z,6.55
2019-02-14T23:10:58.475Z,6.51
2019-02-14T23:13:27.987Z,6.46
2019-02-14T23:15:57.516Z,6.37
2019-02-14T23:18:30.003Z,6.49
2019-02-14T23:21:00.282Z,6.40
2019-02-14T23:23:31.159Z,6.21
2019-02-14T23:26:00.702Z,6.22
2019-02-14T23:28:30.196Z,6.22
2019-02-14T23:31:00.200Z,6.19
2019-02-14T23:33:29.757Z,6.15
2019-02-14T23:35:59.425Z,6.17
2019-02-14T23:38:28.960Z,6.05
2019-02-14T23:40:59.141Z,6.04
2019-02-14T23:43:28.828Z,5.96
2019-02-14T23:45:58.473Z,5.87
2019-02-14T23:48:28.190Z,5.78
2019-02-14T23:50:57.783Z,5.83
2019-02-14T23:53:27.491Z,5.75
2019-02-14T23:55:57.039Z,5.78
2019-02-14T23:58:27.082Z,5.79
